sensor_id;sensor_type;location;lat;lon;timestamp;pressure;altitude;pressure_sealevel;temperature;humidity
7906;BME280;13291;40.472;-3.878;2022-08-01T00:02:07;52783.94;;;-139.96;26.68
7906;BME280;13291;40.472;-3.878;2022-08-01T00:04:33;52789.94;;;-139.96;26.55
7906;BME280;13291;40.472;-3.878;2022-08-01T00:07:02;52769.94;;;-139.96;27.17
7906;BME280;13291;40.472;-3.878;2022-08-01T00:09:30;52801.94;;;-139.96;27.03
7906;BME280;13291;40.472;-3.878;2022-08-01T00:11:57;52797.94;;;-139.96;26.91
7906;BME280;13291;40.472;-3.878;2022-08-01T00:14:24;52815.94;;;-139.96;26.77
7906;BME280;13291;40.472;-3.878;2022-08-01T00:16:52;52773.94;;;-139.96;27.09
7906;BME280;13291;40.472;-3.878;2022-08-01T00:19:19;52793.94;;;-139.96;27.40
7906;BME280;13291;40.472;-3.878;2022-08-01T00:21:46;52783.94;;;-139.96;27.18
7906;BME280;13291;40.472;-3.878;2022-08-01T00:24:14;52793.94;;;-139.96;27.27
7906;BME280;13291;40.472;-3.878;2022-08-01T00:26:41;52777.94;;;-139.96;27.30
7906;BME280;13291;40.472;-3.878;2022-08-01T00:29:08;52813.94;;;-139.96;27.63
7906;BME280;13291;40.472;-3.878;2022-08-01T00:31:35;52783.94;;;-139.96;27.71
7906;BME280;13291;40.472;-3.878;2022-08-01T00:34:02;52797.94;;;-139.96;27.88
7906;BME280;13291;40.472;-3.878;2022-08-01T00:36:28;52779.94;;;-139.96;27.80
7906;BME280;13291;40.472;-3.878;2022-08-01T00:38:55;52793.94;;;-139.96;27.76
7906;BME280;13291;40.472;-3.878;2022-08-01T00:41:24;52805.94;;;-139.96;28.13
7906;BME280;13291;40.472;-3.878;2022-08-01T00:43:50;52789.94;;;-139.96;28.00
7906;BME280;13291;40.472;-3.878;2022-08-01T00:46:17;52797.94;;;-139.96;28.67
7906;BME280;13291;40.472;-3.878;2022-08-01T00:48:44;52805.94;;;-139.96;28.64
7906;BME280;13291;40.472;-3.878;2022-08-01T00:51:12;52799.94;;;-139.96;28.41
7906;BME280;13291;40.472;-3.878;2022-08-01T00:53:39;52789.94;;;-139.96;28.67
7906;BME280;13291;40.472;-3.878;2022-08-01T00:56:06;52809.94;;;-139.96;28.60
7906;BME280;13291;40.472;-3.878;2022-08-01T00:58:35;52809.94;;;-139.96;28.90
7906;BME280;13291;40.472;-3.878;2022-08-01T01:01:02;52823.94;;;-139.96;29.12
7906;BME280;13291;40.472;-3.878;2022-08-01T01:03:28;52795.94;;;-139.96;29.57
7906;BME280;13291;40.472;-3.878;2022-08-01T01:06:05;52785.94;;;-139.96;29.45
7906;BME280;13291;40.472;-3.878;2022-08-01T01:08:37;52781.94;;;-139.96;29.69
7906;BME280;13291;40.472;-3.878;2022-08-01T01:11:12;52789.94;;;-139.96;29.84
7906;BME280;13291;40.472;-3.878;2022-08-01T01:13:49;52795.94;;;-139.96;30.03
7906;BME280;13291;40.472;-3.878;2022-08-01T01:16:20;52777.94;;;-139.96;30.06
7906;BME280;13291;40.472;-3.878;2022-08-01T01:18:51;52799.94;;;-139.96;30.15
7906;BME280;13291;40.472;-3.878;2022-08-01T01:21:37;52813.94;;;-139.96;30.56
7906;BME280;13291;40.472;-3.878;2022-08-01T01:24:17;52793.94;;;-139.96;31.28
7906;BME280;13291;40.472;-3.878;2022-08-01T01:26:53;52825.94;;;-139.96;31.39
7906;BME280;13291;40.472;-3.878;2022-08-01T01:29:28;52815.94;;;-139.96;31.34
7906;BME280;13291;40.472;-3.878;2022-08-01T01:32:06;52827.94;;;-139.96;31.18
7906;BME280;13291;40.472;-3.878;2022-08-01T01:34:36;52767.94;;;-139.96;31.35
7906;BME280;13291;40.472;-3.878;2022-08-01T01:37:07;52831.97;;;-139.96;31.43
7906;BME280;13291;40.472;-3.878;2022-08-01T01:39:36;52843.97;;;-139.96;31.62
7906;BME280;13291;40.472;-3.878;2022-08-01T01:42:06;52799.94;;;-139.96;31.67
7906;BME280;13291;40.472;-3.878;2022-08-01T01:44:36;52807.94;;;-139.96;31.66
7906;BME280;13291;40.472;-3.878;2022-08-01T01:47:04;52815.94;;;-139.96;31.83
7906;BME280;13291;40.472;-3.878;2022-08-01T01:49:32;52797.94;;;-139.96;31.72
7906;BME280;13291;40.472;-3.878;2022-08-01T01:52:01;52829.94;;;-139.96;31.81
7906;BME280;13291;40.472;-3.878;2022-08-01T01:54:34;52805.94;;;-139.96;31.92
7906;BME280;13291;40.472;-3.878;2022-08-01T01:57:03;52833.97;;;-139.96;31.97
7906;BME280;13291;40.472;-3.878;2022-08-01T01:59:34;52821.94;;;-139.96;31.78
7906;BME280;13291;40.472;-3.878;2022-08-01T02:02:02;52787.94;;;-139.96;32.12
7906;BME280;13291;40.472;-3.878;2022-08-01T02:04:30;52829.94;;;-139.96;32.12
7906;BME280;13291;40.472;-3.878;2022-08-01T02:07:00;52823.94;;;-139.96;32.06
7906;BME280;13291;40.472;-3.878;2022-08-01T02:09:29;52801.94;;;-139.96;32.00
7906;BME280;13291;40.472;-3.878;2022-08-01T02:11:57;52815.94;;;-139.96;32.30
7906;BME280;13291;40.472;-3.878;2022-08-01T02:14:27;52837.97;;;-139.96;32.56
7906;BME280;13291;40.472;-3.878;2022-08-01T02:16:56;52829.94;;;-139.96;32.72
7906;BME280;13291;40.472;-3.878;2022-08-01T02:19:24;52825.94;;;-139.96;32.74
7906;BME280;13291;40.472;-3.878;2022-08-01T02:21:55;52819.94;;;-139.96;33.06
7906;BME280;13291;40.472;-3.878;2022-08-01T02:24:28;52843.97;;;-139.96;32.48
7906;BME280;13291;40.472;-3.878;2022-08-01T02:27:01;52833.97;;;-139.96;32.77
7906;BME280;13291;40.472;-3.878;2022-08-01T02:29:36;52859.97;;;-139.96;32.57
7906;BME280;13291;40.472;-3.878;2022-08-01T02:32:06;52853.97;;;-139.96;32.49
7906;BME280;13291;40.472;-3.878;2022-08-01T02:34:35;52823.94;;;-139.96;32.53
7906;BME280;13291;40.472;-3.878;2022-08-01T02:37:03;52833.97;;;-139.96;32.69
7906;BME280;13291;40.472;-3.878;2022-08-01T02:39:31;52865.97;;;-139.96;32.58
7906;BME280;13291;40.472;-3.878;2022-08-01T02:42:01;52841.97;;;-139.96;32.56
7906;BME280;13291;40.472;-3.878;2022-08-01T02:44:32;52861.97;;;-139.96;32.63
7906;BME280;13291;40.472;-3.878;2022-08-01T02:47:02;52861.97;;;-139.96;32.41
7906;BME280;13291;40.472;-3.878;2022-08-01T02:49:34;52845.97;;;-139.96;32.29
7906;BME280;13291;40.472;-3.878;2022-08-01T02:52:05;52821.94;;;-139.96;32.01
7906;BME280;13291;40.472;-3.878;2022-08-01T02:54:34;52813.94;;;-139.96;32.39
7906;BME280;13291;40.472;-3.878;2022-08-01T02:57:03;52805.94;;;-139.96;32.24
7906;BME280;13291;40.472;-3.878;2022-08-01T02:59:31;52817.94;;;-139.96;32.23
7906;BME280;13291;40.472;-3.878;2022-08-01T03:02:01;52843.97;;;-139.96;32.00
7906;BME280;13291;40.472;-3.878;2022-08-01T03:04:33;52827.94;;;-139.96;32.14
7906;BME280;13291;40.472;-3.878;2022-08-01T03:07:02;52811.94;;;-139.96;32.19
7906;BME280;13291;40.472;-3.878;2022-08-01T03:09:32;52845.97;;;-139.96;32.17
7906;BME280;13291;40.472;-3.878;2022-08-01T03:12:02;52805.94;;;-139.96;32.25
7906;BME280;13291;40.472;-3.878;2022-08-01T03:14:32;52823.94;;;-139.96;32.08
7906;BME280;13291;40.472;-3.878;2022-08-01T03:17:04;52815.94;;;-139.96;32.43
7906;BME280;13291;40.472;-3.878;2022-08-01T03:19:33;52841.97;;;-139.96;32.77
7906;BME280;13291;40.472;-3.878;2022-08-01T03:22:01;52825.94;;;-139.96;32.91
7906;BME280;13291;40.472;-3.878;2022-08-01T03:24:30;52829.94;;;-139.96;32.56
7906;BME280;13291;40.472;-3.878;2022-08-01T03:26:58;52835.97;;;-139.96;32.94
7906;BME280;13291;40.472;-3.878;2022-08-01T03:29:27;52813.94;;;-139.96;33.09
7906;BME280;13291;40.472;-3.878;2022-08-01T03:31:56;52803.94;;;-139.96;33.13
7906;BME280;13291;40.472;-3.878;2022-08-01T03:34:23;52841.97;;;-139.96;33.01
7906;BME280;13291;40.472;-3.878;2022-08-01T03:36:56;52845.97;;;-139.96;32.82
7906;BME280;13291;40.472;-3.878;2022-08-01T03:39:30;52813.94;;;-139.96;33.18
7906;BME280;13291;40.472;-3.878;2022-08-01T03:42:03;52825.94;;;-139.96;33.41
7906;BME280;13291;40.472;-3.878;2022-08-01T03:44:33;52843.97;;;-139.96;33.20
7906;BME280;13291;40.472;-3.878;2022-08-01T03:47:06;52809.94;;;-139.96;33.34
7906;BME280;13291;40.472;-3.878;2022-08-01T03:49:38;52825.94;;;-139.96;33.37
7906;BME280;13291;40.472;-3.878;2022-08-01T03:52:08;52821.94;;;-139.96;33.20
7906;BME280;13291;40.472;-3.878;2022-08-01T03:54:40;52829.94;;;-139.96;33.05
7906;BME280;13291;40.472;-3.878;2022-08-01T03:57:09;52841.97;;;-139.96;32.88
7906;BME280;13291;40.472;-3.878;2022-08-01T03:59:37;52829.94;;;-139.96;33.03
7906;BME280;13291;40.472;-3.878;2022-08-01T04:02:05;52823.94;;;-139.96;33.25
7906;BME280;13291;40.472;-3.878;2022-08-01T04:04:33;52833.97;;;-139.96;33.04
7906;BME280;13291;40.472;-3.878;2022-08-01T04:07:00;52835.97;;;-139.96;33.11
7906;BME280;13291;40.472;-3.878;2022-08-01T04:09:31;52851.97;;;-139.96;33.26
7906;BME280;13291;40.472;-3.878;2022-08-01T04:11:58;52821.94;;;-139.96;33.34
7906;BME280;13291;40.472;-3.878;2022-08-01T04:14:26;52817.94;;;-139.96;33.23
7906;BME280;13291;40.472;-3.878;2022-08-01T04:16:53;52853.97;;;-139.96;33.37
7906;BME280;13291;40.472;-3.878;2022-08-01T04:19:20;52815.94;;;-139.96;33.61
7906;BME280;13291;40.472;-3.878;2022-08-01T04:21:47;52853.97;;;-139.96;33.41
7906;BME280;13291;40.472;-3.878;2022-08-01T04:24:17;52857.97;;;-139.96;33.54
7906;BME280;13291;40.472;-3.878;2022-08-01T04:26:47;52841.97;;;-139.96;33.59
7906;BME280;13291;40.472;-3.878;2022-08-01T04:29:16;52837.97;;;-139.96;33.79
7906;BME280;13291;40.472;-3.878;2022-08-01T04:31:46;52833.97;;;-139.96;33.80
7906;BME280;13291;40.472;-3.878;2022-08-01T04:34:16;52837.97;;;-139.96;33.83
7906;BME280;13291;40.472;-3.878;2022-08-01T04:36:44;52825.94;;;-139.96;33.60
7906;BME280;13291;40.472;-3.878;2022-08-01T04:39:13;52857.97;;;-139.96;33.73
7906;BME280;13291;40.472;-3.878;2022-08-01T04:41:43;52841.97;;;-139.96;33.80
7906;BME280;13291;40.472;-3.878;2022-08-01T04:44:13;52849.97;;;-139.96;33.68
7906;BME280;13291;40.472;-3.878;2022-08-01T04:46:42;52851.97;;;-139.96;33.85
7906;BME280;13291;40.472;-3.878;2022-08-01T04:49:10;52817.94;;;-139.96;33.89
7906;BME280;13291;40.472;-3.878;2022-08-01T04:51:49;52845.97;;;-139.96;34.09
7906;BME280;13291;40.472;-3.878;2022-08-01T04:54:17;52853.97;;;-139.96;33.99
7906;BME280;13291;40.472;-3.878;2022-08-01T04:56:44;52847.97;;;-139.96;34.07
7906;BME280;13291;40.472;-3.878;2022-08-01T04:59:13;52849.97;;;-139.96;33.97
7906;BME280;13291;40.472;-3.878;2022-08-01T05:01:57;52861.97;;;-139.96;34.08
7906;BME280;13291;40.472;-3.878;2022-08-01T05:04:24;52853.97;;;-139.96;34.02
7906;BME280;13291;40.472;-3.878;2022-08-01T05:06:51;52849.97;;;-139.96;34.25
7906;BME280;13291;40.472;-3.878;2022-08-01T05:09:18;52845.97;;;-139.96;34.09
7906;BME280;13291;40.472;-3.878;2022-08-01T05:11:45;52841.97;;;-139.96;34.07
7906;BME280;13291;40.472;-3.878;2022-08-01T05:14:14;52859.97;;;-139.96;34.25
7906;BME280;13291;40.472;-3.878;2022-08-01T05:16:41;52853.97;;;-139.96;34.42
7906;BME280;13291;40.472;-3.878;2022-08-01T05:19:08;52847.97;;;-139.96;34.29
7906;BME280;13291;40.472;-3.878;2022-08-01T05:21:35;52837.97;;;-139.96;34.28
7906;BME280;13291;40.472;-3.878;2022-08-01T05:24:03;52825.94;;;-139.96;34.29
7906;BME280;13291;40.472;-3.878;2022-08-01T05:26:30;52853.97;;;-139.96;34.38
7906;BME280;13291;40.472;-3.878;2022-08-01T05:28:58;52839.97;;;-139.96;34.42
7906;BME280;13291;40.472;-3.878;2022-08-01T05:31:27;52833.97;;;-139.96;34.43
7906;BME280;13291;40.472;-3.878;2022-08-01T05:33:54;52831.97;;;-139.96;34.54
7906;BME280;13291;40.472;-3.878;2022-08-01T05:36:21;52853.97;;;-139.96;34.73
7906;BME280;13291;40.472;-3.878;2022-08-01T05:38:48;52847.97;;;-139.96;34.96
7906;BME280;13291;40.472;-3.878;2022-08-01T05:41:15;52845.97;;;-139.96;34.95
7906;BME280;13291;40.472;-3.878;2022-08-01T05:43:42;52833.97;;;-139.96;35.03
7906;BME280;13291;40.472;-3.878;2022-08-01T05:46:08;52837.97;;;-139.96;35.00
7906;BME280;13291;40.472;-3.878;2022-08-01T05:48:37;52887.97;;;-139.96;35.13
7906;BME280;13291;40.472;-3.878;2022-08-01T05:51:04;52845.97;;;-139.96;34.97
7906;BME280;13291;40.472;-3.878;2022-08-01T05:53:31;52833.97;;;-139.96;35.15
7906;BME280;13291;40.472;-3.878;2022-08-01T05:55:59;52821.94;;;-139.96;35.31
7906;BME280;13291;40.472;-3.878;2022-08-01T05:58:27;52845.97;;;-139.96;35.27
7906;BME280;13291;40.472;-3.878;2022-08-01T06:00:54;52835.97;;;-139.96;35.48
7906;BME280;13291;40.472;-3.878;2022-08-01T06:03:20;52867.97;;;-139.96;35.76
7906;BME280;13291;40.472;-3.878;2022-08-01T06:05:49;52853.97;;;-139.96;35.52
7906;BME280;13291;40.472;-3.878;2022-08-01T06:08:16;52843.97;;;-139.96;35.70
7906;BME280;13291;40.472;-3.878;2022-08-01T06:10:43;52837.97;;;-139.96;35.43
7906;BME280;13291;40.472;-3.878;2022-08-01T06:13:09;52833.97;;;-139.96;35.58
7906;BME280;13291;40.472;-3.878;2022-08-01T06:15:36;52849.97;;;-139.96;35.49
7906;BME280;13291;40.472;-3.878;2022-08-01T06:18:03;52843.97;;;-139.96;35.62
7906;BME280;13291;40.472;-3.878;2022-08-01T06:20:30;52853.97;;;-139.96;35.38
7906;BME280;13291;40.472;-3.878;2022-08-01T06:22:59;52851.97;;;-139.96;35.72
7906;BME280;13291;40.472;-3.878;2022-08-01T06:25:25;52831.97;;;-139.96;35.63
7906;BME280;13291;40.472;-3.878;2022-08-01T06:27:52;52881.97;;;-139.96;35.75
7906;BME280;13291;40.472;-3.878;2022-08-01T06:30:19;52873.97;;;-139.96;36.00
7906;BME280;13291;40.472;-3.878;2022-08-01T06:32:46;52859.97;;;-139.96;35.90
7906;BME280;13291;40.472;-3.878;2022-08-01T06:35:14;52845.97;;;-139.96;35.77
7906;BME280;13291;40.472;-3.878;2022-08-01T06:37:41;52857.97;;;-139.96;35.63
7906;BME280;13291;40.472;-3.878;2022-08-01T06:40:12;52851.97;;;-139.96;36.08
7906;BME280;13291;40.472;-3.878;2022-08-01T06:42:39;52869.97;;;-139.96;35.99
7906;BME280;13291;40.472;-3.878;2022-08-01T06:45:08;52873.97;;;-139.96;35.87
7906;BME280;13291;40.472;-3.878;2022-08-01T06:47:36;52851.97;;;-139.96;36.24
7906;BME280;13291;40.472;-3.878;2022-08-01T06:50:04;52853.97;;;-139.96;36.25
7906;BME280;13291;40.472;-3.878;2022-08-01T06:52:31;52853.97;;;-139.96;36.07
7906;BME280;13291;40.472;-3.878;2022-08-01T06:54:58;52849.97;;;-139.96;36.19
7906;BME280;13291;40.472;-3.878;2022-08-01T06:57:26;52857.97;;;-139.96;36.11
7906;BME280;13291;40.472;-3.878;2022-08-01T06:59:53;52861.97;;;-139.96;36.37
7906;BME280;13291;40.472;-3.878;2022-08-01T07:02:21;52841.97;;;-139.96;36.33
7906;BME280;13291;40.472;-3.878;2022-08-01T07:04:48;52829.94;;;-139.96;36.45
7906;BME280;13291;40.472;-3.878;2022-08-01T07:07:15;52871.97;;;-139.96;36.49
7906;BME280;13291;40.472;-3.878;2022-08-01T07:09:42;52857.97;;;-139.96;36.95
7906;BME280;13291;40.472;-3.878;2022-08-01T07:12:09;52861.97;;;-139.96;37.18
7906;BME280;13291;40.472;-3.878;2022-08-01T07:14:37;52851.97;;;-139.96;37.13
7906;BME280;13291;40.472;-3.878;2022-08-01T07:17:04;52853.97;;;-139.96;37.57
7906;BME280;13291;40.472;-3.878;2022-08-01T07:19:31;52831.97;;;-139.96;37.37
7906;BME280;13291;40.472;-3.878;2022-08-01T07:21:58;52845.97;;;-139.96;37.83
7906;BME280;13291;40.472;-3.878;2022-08-01T07:24:25;52841.97;;;-139.96;37.75
7906;BME280;13291;40.472;-3.878;2022-08-01T07:26:54;52825.94;;;-139.96;37.94
7906;BME280;13291;40.472;-3.878;2022-08-01T07:29:23;52851.97;;;-139.96;38.04
7906;BME280;13291;40.472;-3.878;2022-08-01T07:31:52;52817.94;;;-139.96;38.48
7906;BME280;13291;40.472;-3.878;2022-08-01T07:34:20;52857.97;;;-139.96;38.28
7906;BME280;13291;40.472;-3.878;2022-08-01T07:36:47;52869.97;;;-139.96;38.74
7906;BME280;13291;40.472;-3.878;2022-08-01T07:39:13;52855.97;;;-139.96;38.68
7906;BME280;13291;40.472;-3.878;2022-08-01T07:41:40;52845.97;;;-139.96;39.07
7906;BME280;13291;40.472;-3.878;2022-08-01T07:44:07;52861.97;;;-139.96;38.69
7906;BME280;13291;40.472;-3.878;2022-08-01T07:46:34;52837.97;;;-139.96;38.83
7906;BME280;13291;40.472;-3.878;2022-08-01T07:49:03;52859.97;;;-139.96;39.08
7906;BME280;13291;40.472;-3.878;2022-08-01T07:51:29;52859.97;;;-139.96;39.00
7906;BME280;13291;40.472;-3.878;2022-08-01T07:53:56;52841.97;;;-139.96;39.25
7906;BME280;13291;40.472;-3.878;2022-08-01T07:56:23;52825.94;;;-139.96;39.14
7906;BME280;13291;40.472;-3.878;2022-08-01T07:58:51;52857.97;;;-139.96;39.86
7906;BME280;13291;40.472;-3.878;2022-08-01T08:01:18;52853.97;;;-139.96;39.59
7906;BME280;13291;40.472;-3.878;2022-08-01T08:03:45;52835.97;;;-139.96;39.95
7906;BME280;13291;40.472;-3.878;2022-08-01T08:06:13;52837.97;;;-139.96;40.26
7906;BME280;13291;40.472;-3.878;2022-08-01T08:08:40;52853.97;;;-139.96;40.48
7906;BME280;13291;40.472;-3.878;2022-08-01T08:11:07;52855.97;;;-139.96;40.78
7906;BME280;13291;40.472;-3.878;2022-08-01T08:13:34;52845.97;;;-139.96;40.74
7906;BME280;13291;40.472;-3.878;2022-08-01T08:16:01;52845.97;;;-139.96;40.71
7906;BME280;13291;40.472;-3.878;2022-08-01T08:18:27;52829.94;;;-139.96;41.00
7906;BME280;13291;40.472;-3.878;2022-08-01T08:20:54;52833.97;;;-139.96;40.95
7906;BME280;13291;40.472;-3.878;2022-08-01T08:23:23;52819.94;;;-139.96;41.63
7906;BME280;13291;40.472;-3.878;2022-08-01T08:26:07;52831.97;;;-139.96;41.69
7906;BME280;13291;40.472;-3.878;2022-08-01T08:28:34;52845.97;;;-139.96;41.15
7906;BME280;13291;40.472;-3.878;2022-08-01T08:31:01;52841.97;;;-139.96;41.33
7906;BME280;13291;40.472;-3.878;2022-08-01T08:33:28;52821.94;;;-139.96;41.09
7906;BME280;13291;40.472;-3.878;2022-08-01T08:35:55;52843.97;;;-139.96;41.12
7906;BME280;13291;40.472;-3.878;2022-08-01T08:38:23;52831.97;;;-139.96;41.54
7906;BME280;13291;40.472;-3.878;2022-08-01T08:40:52;52841.97;;;-139.96;41.23
7906;BME280;13291;40.472;-3.878;2022-08-01T08:43:20;52815.94;;;-139.96;40.77
7906;BME280;13291;40.472;-3.878;2022-08-01T08:45:48;52825.94;;;-139.96;41.78
7906;BME280;13291;40.472;-3.878;2022-08-01T08:48:16;52837.97;;;-139.96;41.48
7906;BME280;13291;40.472;-3.878;2022-08-01T08:50:43;52809.94;;;-139.96;41.48
7906;BME280;13291;40.472;-3.878;2022-08-01T08:53:13;52821.94;;;-139.96;41.44
7906;BME280;13291;40.472;-3.878;2022-08-01T08:55:42;52841.97;;;-139.96;41.44
7906;BME280;13291;40.472;-3.878;2022-08-01T08:58:12;52829.94;;;-139.96;41.37
7906;BME280;13291;40.472;-3.878;2022-08-01T09:00:40;52813.94;;;-139.96;41.39
7906;BME280;13291;40.472;-3.878;2022-08-01T09:03:07;52851.97;;;-139.96;41.48
7906;BME280;13291;40.472;-3.878;2022-08-01T09:05:34;52825.94;;;-139.96;42.52
7906;BME280;13291;40.472;-3.878;2022-08-01T09:08:01;52833.97;;;-139.96;41.75
7906;BME280;13291;40.472;-3.878;2022-08-01T09:10:28;52807.94;;;-139.96;41.26
7906;BME280;13291;40.472;-3.878;2022-08-01T09:13:08;52819.94;;;-139.96;41.67
7906;BME280;13291;40.472;-3.878;2022-08-01T09:15:41;52823.94;;;-139.96;41.22
7906;BME280;13291;40.472;-3.878;2022-08-01T09:18:08;52833.97;;;-139.96;40.93
7906;BME280;13291;40.472;-3.878;2022-08-01T09:20:35;52813.94;;;-139.96;41.11
7906;BME280;13291;40.472;-3.878;2022-08-01T09:23:02;52791.94;;;-139.96;42.10
7906;BME280;13291;40.472;-3.878;2022-08-01T09:25:30;52793.94;;;-139.96;41.46
7906;BME280;13291;40.472;-3.878;2022-08-01T09:28:04;52817.94;;;-139.96;41.38
7906;BME280;13291;40.472;-3.878;2022-08-01T09:30:38;52817.94;;;-139.96;41.32
7906;BME280;13291;40.472;-3.878;2022-08-01T09:33:05;52827.94;;;-139.96;41.72
7906;BME280;13291;40.472;-3.878;2022-08-01T09:35:34;52829.94;;;-139.96;41.24
7906;BME280;13291;40.472;-3.878;2022-08-01T09:38:15;52843.97;;;-139.96;41.44
7906;BME280;13291;40.472;-3.878;2022-08-01T09:40:50;52793.94;;;-139.96;41.29
7906;BME280;13291;40.472;-3.878;2022-08-01T09:43:19;52825.94;;;-139.96;40.44
7906;BME280;13291;40.472;-3.878;2022-08-01T09:45:47;52811.94;;;-139.96;41.08
7906;BME280;13291;40.472;-3.878;2022-08-01T09:48:15;52799.94;;;-139.96;40.72
7906;BME280;13291;40.472;-3.878;2022-08-01T09:50:43;52817.94;;;-139.96;41.20
7906;BME280;13291;40.472;-3.878;2022-08-01T09:53:10;52817.94;;;-139.96;40.74
7906;BME280;13291;40.472;-3.878;2022-08-01T09:55:38;52821.94;;;-139.96;41.03
7906;BME280;13291;40.472;-3.878;2022-08-01T09:58:05;52823.94;;;-139.96;41.15
7906;BME280;13291;40.472;-3.878;2022-08-01T10:00:33;52809.94;;;-139.96;40.36
7906;BME280;13291;40.472;-3.878;2022-08-01T10:03:19;52801.94;;;-139.96;41.33
7906;BME280;13291;40.472;-3.878;2022-08-01T10:05:46;52781.94;;;-139.96;40.55
7906;BME280;13291;40.472;-3.878;2022-08-01T10:08:14;52807.94;;;-139.96;40.65
7906;BME280;13291;40.472;-3.878;2022-08-01T10:10:42;52809.94;;;-139.96;40.33
7906;BME280;13291;40.472;-3.878;2022-08-01T10:13:10;52805.94;;;-139.96;39.69
7906;BME280;13291;40.472;-3.878;2022-08-01T10:15:39;52787.94;;;-139.96;40.18
7906;BME280;13291;40.472;-3.878;2022-08-01T10:18:08;52809.94;;;-139.96;40.88
7906;BME280;13291;40.472;-3.878;2022-08-01T10:20:38;52801.94;;;-139.96;39.57
7906;BME280;13291;40.472;-3.878;2022-08-01T10:23:06;52783.94;;;-139.96;39.53
7906;BME280;13291;40.472;-3.878;2022-08-01T10:25:37;52781.94;;;-139.96;39.59
7906;BME280;13291;40.472;-3.878;2022-08-01T10:28:14;52803.94;;;-139.96;38.56
7906;BME280;13291;40.472;-3.878;2022-08-01T10:30:43;52797.94;;;-139.96;38.68
7906;BME280;13291;40.472;-3.878;2022-08-01T10:33:12;52793.94;;;-139.96;38.45
7906;BME280;13291;40.472;-3.878;2022-08-01T10:35:39;52779.94;;;-139.96;38.50
7906;BME280;13291;40.472;-3.878;2022-08-01T10:38:07;52803.94;;;-139.96;38.32
7906;BME280;13291;40.472;-3.878;2022-08-01T10:40:35;52765.94;;;-139.96;38.59
7906;BME280;13291;40.472;-3.878;2022-08-01T10:43:03;52765.94;;;-139.96;38.24
7906;BME280;13291;40.472;-3.878;2022-08-01T10:45:31;52777.94;;;-139.96;37.66
7906;BME280;13291;40.472;-3.878;2022-08-01T10:48:05;52769.94;;;-139.96;36.63
7906;BME280;13291;40.472;-3.878;2022-08-01T10:50:41;52791.94;;;-139.96;37.10
7906;BME280;13291;40.472;-3.878;2022-08-01T10:53:13;52767.94;;;-139.96;36.27
7906;BME280;13291;40.472;-3.878;2022-08-01T10:55:52;52785.94;;;-139.96;36.20
7906;BME280;13291;40.472;-3.878;2022-08-01T10:58:21;52773.94;;;-139.96;36.25
7906;BME280;13291;40.472;-3.878;2022-08-01T11:00:48;52783.94;;;-139.96;36.44
7906;BME280;13291;40.472;-3.878;2022-08-01T11:03:32;52771.94;;;-139.96;36.56
7906;BME280;13291;40.472;-3.878;2022-08-01T11:06:03;52763.94;;;-139.96;34.38
7906;BME280;13291;40.472;-3.878;2022-08-01T11:08:31;52751.94;;;-139.96;34.00
7906;BME280;13291;40.472;-3.878;2022-08-01T11:11:01;52781.94;;;-139.96;33.89
7906;BME280;13291;40.472;-3.878;2022-08-01T11:14:00;52751.94;;;-139.96;35.77
7906;BME280;13291;40.472;-3.878;2022-08-01T11:16:29;52763.94;;;-139.96;34.97
7906;BME280;13291;40.472;-3.878;2022-08-01T11:18:56;52753.94;;;-139.96;36.40
7906;BME280;13291;40.472;-3.878;2022-08-01T11:21:59;52763.94;;;-139.96;33.51
7906;BME280;13291;40.472;-3.878;2022-08-01T11:24:54;52745.94;;;-139.96;32.13
7906;BME280;13291;40.472;-3.878;2022-08-01T11:27:24;52737.94;;;-139.96;33.25
7906;BME280;13291;40.472;-3.878;2022-08-01T11:30:23;52755.94;;;-139.96;33.28
7906;BME280;13291;40.472;-3.878;2022-08-01T11:32:52;52763.94;;;-139.96;31.49
7906;BME280;13291;40.472;-3.878;2022-08-01T11:35:19;52741.94;;;-139.96;29.84
7906;BME280;13291;40.472;-3.878;2022-08-01T11:37:50;52717.94;;;-139.96;30.11
7906;BME280;13291;40.472;-3.878;2022-08-01T11:40:22;52757.94;;;-139.96;30.21
7906;BME280;13291;40.472;-3.878;2022-08-01T11:42:51;52731.94;;;-139.96;30.10
7906;BME280;13291;40.472;-3.878;2022-08-01T11:45:47;52729.94;;;-139.96;31.55
7906;BME280;13291;40.472;-3.878;2022-08-01T11:48:18;52733.94;;;-139.96;32.05
7906;BME280;13291;40.472;-3.878;2022-08-01T11:50:45;52753.94;;;-139.96;30.13
7906;BME280;13291;40.472;-3.878;2022-08-01T11:53:14;52757.94;;;-139.96;29.36
7906;BME280;13291;40.472;-3.878;2022-08-01T11:55:45;52705.94;;;-139.96;28.89
7906;BME280;13291;40.472;-3.878;2022-08-01T11:58:14;52729.94;;;-139.96;27.43
7906;BME280;13291;40.472;-3.878;2022-08-01T12:00:42;52709.94;;;-139.96;28.33
7906;BME280;13291;40.472;-3.878;2022-08-01T12:03:16;52711.94;;;-139.96;28.87
7906;BME280;13291;40.472;-3.878;2022-08-01T12:05:44;52741.94;;;-139.96;28.21
7906;BME280;13291;40.472;-3.878;2022-08-01T12:08:11;52717.94;;;-139.96;27.32
7906;BME280;13291;40.472;-3.878;2022-08-01T12:10:39;52719.94;;;-139.96;28.43
7906;BME280;13291;40.472;-3.878;2022-08-01T12:13:06;52721.94;;;-139.96;28.63
7906;BME280;13291;40.472;-3.878;2022-08-01T12:15:36;52737.94;;;-139.96;28.13
7906;BME280;13291;40.472;-3.878;2022-08-01T12:18:05;52701.94;;;-139.96;29.08
7906;BME280;13291;40.472;-3.878;2022-08-01T12:20:33;52711.94;;;-139.96;28.67
7906;BME280;13291;40.472;-3.878;2022-08-01T12:23:01;52707.94;;;-139.96;29.13
7906;BME280;13291;40.472;-3.878;2022-08-01T12:25:31;52717.94;;;-139.96;28.31
7906;BME280;13291;40.472;-3.878;2022-08-01T12:28:02;52685.94;;;-139.96;28.90
7906;BME280;13291;40.472;-3.878;2022-08-01T12:30:30;52719.94;;;-139.96;27.84
7906;BME280;13291;40.472;-3.878;2022-08-01T12:33:01;52691.94;;;-139.96;25.94
7906;BME280;13291;40.472;-3.878;2022-08-01T12:35:29;52713.94;;;-139.96;26.17
7906;BME280;13291;40.472;-3.878;2022-08-01T12:37:58;52707.94;;;-139.96;26.32
7906;BME280;13291;40.472;-3.878;2022-08-01T12:40:26;52717.94;;;-139.96;26.03
7906;BME280;13291;40.472;-3.878;2022-08-01T12:42:55;52695.94;;;-139.96;26.49
7906;BME280;13291;40.472;-3.878;2022-08-01T12:45:25;52697.94;;;-139.96;26.04
7906;BME280;13291;40.472;-3.878;2022-08-01T12:47:54;52701.94;;;-139.96;25.80
7906;BME280;13291;40.472;-3.878;2022-08-01T12:50:26;52703.94;;;-139.96;25.76
7906;BME280;13291;40.472;-3.878;2022-08-01T12:52:54;52699.94;;;-139.96;25.53